Time;durP1;ratioP1;P1;durP2;ratioP2;P2;SDS_P1;SDS_P2;PMS_P1;PMS_P2;Temp;Humidity;BMP_temperature;BMP_pressure;BME280_temperature;BME280_humidity;BME280_pressure;Samples;Min_cycle;Max_cycle;Signal;HPM_P1;HPM_P2
2022/04/21 00:00:41;;;;;;;8.18;4.50;;;13.70;50.40;;;;;;5114387;28;20483;-69
2022/04/21 00:03:07;;;;;;;6.25;4.60;;;13.70;50.40;;;;;;5114356;28;20048;-69
2022/04/21 00:05:33;;;;;;;6.72;4.30;;;13.80;50.50;;;;;;5114346;28;20028;-69
2022/04/21 00:07:59;;;;;;;7.20;4.18;;;13.80;50.50;;;;;;5114258;28;20033;-69
2022/04/21 00:10:26;;;;;;;5.97;4.32;;;13.80;50.30;;;;;;5114249;28;20028;-70
2022/04/21 00:12:51;;;;;;;7.30;4.18;;;13.70;50.40;;;;;;5096545;28;20063;-70
2022/04/21 00:15:17;;;;;;;8.35;3.97;;;13.70;50.80;;;;;;5114128;28;20028;-70
2022/04/21 00:17:43;;;;;;;7.93;4.40;;;13.60;50.80;;;;;;5113873;28;20016;-69
2022/04/21 00:20:10;;;;;;;6.03;4.28;;;13.60;50.70;;;;;;5113680;28;20084;-69
2022/04/21 00:25:20;;;;;;;7.05;4.45;;;13.60;50.70;;;;;;5114112;28;20035;-69
2022/04/21 00:27:46;;;;;;;6.88;4.25;;;13.60;50.80;;;;;;5113840;28;20088;-69
2022/04/21 00:30:13;;;;;;;10.48;4.25;;;13.60;50.80;;;;;;5113884;28;20024;-69
2022/04/21 00:32:41;;;;;;;7.53;4.13;;;13.70;50.60;;;;;;5113833;28;20047;-69
2022/04/21 00:35:09;;;;;;;6.05;4.43;;;13.70;50.50;;;;;;5113859;28;20039;-69
2022/04/21 00:37:44;;;;;;;7.68;4.35;;;13.60;50.70;;;;;;5113647;28;20032;-69
2022/04/21 00:40:11;;;;;;;9.23;4.35;;;13.60;50.40;;;;;;5113774;28;20055;-69
2022/04/21 00:42:36;;;;;;;7.45;4.40;;;13.60;50.20;;;;;;5113798;28;20020;-69
2022/04/21 00:45:02;;;;;;;6.10;4.20;;;13.50;50.50;;;;;;5095811;28;20020;-69
2022/04/21 00:47:29;;;;;;;5.70;4.15;;;13.40;50.70;;;;;;5113591;28;20027;-69
2022/04/21 00:49:55;;;;;;;7.30;4.40;;;13.50;50.80;;;;;;5113597;28;20024;-69
2022/04/21 00:52:21;;;;;;;7.13;4.28;;;13.50;50.80;;;;;;5095890;28;20039;-69
2022/04/21 00:54:47;;;;;;;6.45;4.05;;;13.50;50.50;;;;;;5113681;28;20016;-69
2022/04/21 00:57:13;;;;;;;7.50;4.13;;;13.50;50.80;;;;;;5113482;28;20030;-69
2022/04/21 00:59:39;;;;;;;5.65;4.30;;;13.40;51.00;;;;;;5113482;28;20032;-69
2022/04/21 01:04:49;;;;;;;7.20;4.00;;;13.40;50.70;;;;;;5113572;28;20035;-69
2022/04/21 01:07:16;;;;;;;6.30;3.97;;;13.40;50.50;;;;;;5113382;28;20020;-70
2022/04/21 01:09:42;;;;;;;6.50;4.30;;;13.40;50.60;;;;;;5113503;28;20020;-69
2022/04/21 01:12:12;;;;;;;5.20;3.72;;;13.30;50.90;;;;;;5113355;28;20039;-69
2022/04/21 01:14:38;;;;;;;5.97;4.00;;;13.30;51.10;;;;;;5095415;28;20016;-69
2022/04/21 01:17:07;;;;;;;5.13;3.72;;;13.20;51.30;;;;;;5113419;28;20024;-69
2022/04/21 01:19:33;;;;;;;7.72;3.85;;;13.20;51.30;;;;;;5113053;28;20126;-69
2022/04/21 01:21:59;;;;;;;6.22;4.20;;;13.20;51.30;;;;;;5113270;28;20024;-69
2022/04/21 01:24:26;;;;;;;7.03;4.05;;;13.30;51.20;;;;;;5113229;28;20041;-69
2022/04/21 01:26:54;;;;;;;6.55;3.72;;;13.30;50.90;;;;;;5113225;28;20025;-69
2022/04/21 01:29:19;;;;;;;5.68;4.25;;;13.10;51.20;;;;;;5113106;28;20035;-69
2022/04/21 01:31:45;;;;;;;7.38;4.18;;;12.90;51.40;;;;;;5115433;28;20039;-69
2022/04/21 01:34:11;;;;;;;6.13;3.97;;;12.90;51.40;;;;;;5117328;28;20032;-69
2022/04/21 01:41:08;;;;;;;6.68;4.30;;;12.90;51.80;;;;;;5117322;28;20028;-69
2022/04/21 01:42:07;;;;;;;9.55;4.45;;;12.80;51.50;;;;;;5117366;28;20107;-68
2022/04/21 01:44:32;;;;;;;6.57;4.20;;;12.80;51.60;;;;;;5117080;28;20352;-69
2022/04/21 01:46:58;;;;;;;6.50;3.90;;;12.80;51.40;;;;;;5116999;28;20020;-69
2022/04/21 01:49:24;;;;;;;6.63;4.28;;;12.70;51.50;;;;;;5116968;28;20036;-69
2022/04/21 01:51:49;;;;;;;6.53;4.30;;;12.70;52.00;;;;;;5116900;28;20038;-69
2022/04/21 01:54:15;;;;;;;5.47;4.00;;;12.60;52.00;;;;;;5116883;28;20024;-69
2022/04/21 01:56:40;;;;;;;6.97;4.07;;;12.60;52.20;;;;;;5116807;28;20055;-69
2022/04/21 01:59:06;;;;;;;7.70;4.07;;;12.60;52.10;;;;;;5116717;28;20054;-69
2022/04/21 02:01:32;;;;;;;8.20;4.20;;;12.60;52.10;;;;;;5116740;28;20050;-69
2022/04/21 02:03:57;;;;;;;6.45;4.25;;;12.60;52.00;;;;;;5116708;28;20036;-69
2022/04/21 02:06:23;;;;;;;8.07;4.40;;;12.60;52.10;;;;;;5116762;28;20020;-69
2022/04/21 02:08:49;;;;;;;7.53;4.68;;;12.40;52.20;;;;;;5116580;28;20047;-69
2022/04/21 02:11:15;;;;;;;6.78;4.30;;;12.40;52.60;;;;;;5116561;28;20032;-69
2022/04/21 02:13:40;;;;;;;6.50;4.32;;;12.40;52.70;;;;;;5116475;28;20337;-69
2022/04/21 02:16:06;;;;;;;7.88;4.57;;;12.50;52.80;;;;;;5116480;28;20475;-69
2022/04/21 02:18:31;;;;;;;9.25;4.60;;;12.50;52.60;;;;;;5116143;28;20040;-69
2022/04/21 02:20:57;;;;;;;7.53;4.65;;;12.50;52.70;;;;;;5116470;28;20024;-69
2022/04/21 02:23:23;;;;;;;7.93;4.53;;;12.50;52.70;;;;;;5116296;28;20031;-69
2022/04/21 02:25:48;;;;;;;7.25;4.65;;;12.50;52.60;;;;;;5116399;28;20028;-69
2022/04/21 02:28:14;;;;;;;7.55;4.53;;;12.50;52.60;;;;;;5116172;28;20032;-69
2022/04/21 02:30:39;;;;;;;9.43;4.60;;;12.40;52.70;;;;;;5116163;28;20028;-70
2022/04/21 02:33:05;;;;;;;7.60;5.00;;;12.30;52.90;;;;;;5116131;28;20035;-69
2022/04/21 02:35:31;;;;;;;9.82;4.88;;;12.30;52.90;;;;;;5116061;28;20028;-69
2022/04/21 02:37:56;;;;;;;9.43;4.85;;;12.30;52.70;;;;;;5115976;28;20036;-69
2022/04/21 02:40:22;;;;;;;9.55;5.25;;;12.30;52.50;;;;;;5116114;28;20035;-69
2022/04/21 02:42:47;;;;;;;8.98;4.88;;;12.30;52.70;;;;;;5115637;28;20058;-69
2022/04/21 02:45:14;;;;;;;8.25;5.15;;;12.20;52.80;;;;;;5115916;28;20020;-69
2022/04/21 02:47:43;;;;;;;7.25;4.90;;;12.20;53.00;;;;;;5115862;28;20079;-69
2022/04/21 02:50:11;;;;;;;7.63;5.20;;;12.20;53.20;;;;;;5115867;28;20020;-69
2022/04/21 02:52:38;;;;;;;9.80;5.60;;;12.20;53.30;;;;;;5115782;28;20028;-69
2022/04/21 02:57:49;;;;;;;7.47;5.07;;;12.20;52.80;;;;;;5115835;28;20085;-70
2022/04/21 03:00:14;;;;;;;7.97;4.93;;;12.20;52.70;;;;;;5115606;28;20024;-69
2022/04/21 03:02:40;;;;;;;9.95;4.72;;;12.20;52.60;;;;;;5115510;28;20050;-69
2022/04/21 03:05:06;;;;;;;7.45;4.90;;;12.20;52.40;;;;;;5115545;28;20036;-69
2022/04/21 03:07:32;;;;;;;8.50;4.55;;;12.20;52.40;;;;;;5115475;28;20031;-69
2022/04/21 03:09:58;;;;;;;8.18;4.88;;;12.20;52.50;;;;;;5115443;28;20028;-69
2022/04/21 03:12:26;;;;;;;8.43;4.68;;;12.10;53.00;;;;;;5115366;28;20016;-69
2022/04/21 03:14:52;;;;;;;9.85;5.18;;;12.00;53.80;;;;;;5115380;28;20020;-69
2022/04/21 03:17:18;;;;;;;6.93;4.70;;;12.00;54.00;;;;;;5115248;28;20046;-70
2022/04/21 03:19:44;;;;;;;6.75;4.75;;;11.90;53.70;;;;;;5097157;28;20036;-69
2022/04/21 03:24:58;;;;;;;8.25;5.20;;;12.00;53.20;;;;;;5115317;28;20043;-69
2022/04/21 03:27:23;;;;;;;6.68;4.78;;;12.00;53.00;;;;;;5115059;28;20463;-69
2022/04/21 03:29:50;;;;;;;8.60;4.90;;;12.00;52.80;;;;;;5115000;28;20039;-69
2022/04/21 03:32:15;;;;;;;8.75;4.72;;;12.00;53.10;;;;;;5114954;28;20491;-69
2022/04/21 03:34:42;;;;;;;9.85;5.15;;;11.70;53.60;;;;;;5114953;28;20024;-69
2022/04/21 03:37:09;;;;;;;9.00;5.65;;;11.50;54.10;;;;;;5114930;28;20031;-69
2022/04/21 03:39:36;;;;;;;9.95;5.55;;;11.50;54.20;;;;;;5114805;28;20028;-68
2022/04/21 03:42:06;;;;;;;7.80;4.95;;;11.40;54.00;;;;;;5114810;28;20046;-69
2022/04/21 03:44:32;;;;;;;9.55;4.82;;;11.40;54.40;;;;;;5114922;28;20020;-69
2022/04/21 03:46:58;;;;;;;8.13;5.30;;;11.40;54.30;;;;;;5114681;28;20038;-69
2022/04/21 03:49:28;;;;;;;7.60;4.45;;;11.50;54.10;;;;;;5114747;28;20091;-69
2022/04/21 03:51:55;;;;;;;9.05;5.25;;;11.50;53.60;;;;;;5114733;28;20028;-69
2022/04/21 03:54:22;;;;;;;7.20;4.63;;;11.50;53.30;;;;;;5113797;28;20032;-68
2022/04/21 03:56:48;;;;;;;7.57;5.05;;;11.30;53.60;;;;;;5114496;28;20027;-69
2022/04/21 03:59:14;;;;;;;9.25;5.38;;;11.10;54.30;;;;;;5114389;28;20032;-69
2022/04/21 04:01:40;;;;;;;9.15;5.30;;;11.00;54.60;;;;;;5114403;28;20041;-69
2022/04/21 04:04:06;;;;;;;9.35;5.07;;;10.90;54.80;;;;;;5096465;28;20020;-68
2022/04/21 04:12:03;;;;;;;10.90;5.22;;;11.00;54.80;;;;;;5099255;28;20073;-68
2022/04/21 04:14:29;;;;;;;9.40;5.35;;;10.90;54.80;;;;;;5114174;28;20027;-68
2022/04/21 04:16:55;;;;;;;9.82;5.10;;;10.90;54.60;;;;;;5114118;28;20016;-69
2022/04/21 04:19:20;;;;;;;9.00;5.00;;;10.80;54.70;;;;;;5113831;28;20047;-69
2022/04/21 04:21:46;;;;;;;8.68;4.88;;;10.50;55.30;;;;;;5114066;28;20083;-69
2022/04/21 04:24:12;;;;;;;7.47;5.00;;;10.60;55.60;;;;;;5096063;28;20039;-69
2022/04/21 04:26:37;;;;;;;7.95;4.93;;;10.70;55.40;;;;;;5113957;28;20024;-69
2022/04/21 04:29:04;;;;;;;6.90;5.00;;;10.70;55.40;;;;;;5095850;28;20027;-69
2022/04/21 04:31:31;;;;;;;8.00;4.80;;;10.60;55.70;;;;;;5113887;28;20016;-69
2022/04/21 04:33:57;;;;;;;7.95;4.90;;;10.50;56.20;;;;;;5113861;28;20073;-69
2022/04/21 04:36:23;;;;;;;7.53;5.25;;;10.40;56.50;;;;;;5113737;28;20024;-68
2022/04/21 04:38:49;;;;;;;9.77;5.50;;;10.20;56.60;;;;;;5113711;28;20032;-69
2022/04/21 04:44:00;;;;;;;10.55;5.57;;;10.10;57.60;;;;;;5113833;28;20035;-69
2022/04/21 04:46:35;;;;;;;11.98;5.72;;;9.90;57.30;;;;;;5113664;28;20024;-69
2022/04/21 04:49:06;;;;;;;10.68;5.20;;;9.70;57.80;;;;;;5113758;28;20083;-69
2022/04/21 04:51:32;;;;;;;8.43;4.82;;;9.60;58.50;;;;;;5113729;28;20026;-69
2022/04/21 04:53:58;;;;;;;10.02;5.00;;;9.80;58.50;;;;;;5113533;28;20084;-69
2022/04/21 04:56:24;;;;;;;8.77;5.05;;;9.90;58.20;;;;;;5113547;28;20077;-69
2022/04/21 04:58:54;;;;;;;8.80;5.38;;;10.00;58.00;;;;;;5113402;28;20032;-69
2022/04/21 05:01:28;;;;;;;11.57;5.65;;;10.00;57.60;;;;;;5113526;28;20083;-69
2022/04/21 05:04:06;;;;;;;9.93;5.63;;;9.70;58.70;;;;;;5113535;28;20084;-69
2022/04/21 05:06:37;;;;;;;10.70;5.57;;;9.60;59.10;;;;;;5113386;28;20017;-69
2022/04/21 05:09:04;;;;;;;9.02;5.70;;;9.70;59.10;;;;;;5113537;28;20115;-70
2022/04/21 05:11:30;;;;;;;10.13;6.38;;;9.90;58.70;;;;;;5113377;28;20028;-70
2022/04/21 05:13:55;;;;;;;9.45;5.88;;;10.10;58.60;;;;;;5113292;28;20053;-70
2022/04/21 05:16:21;;;;;;;10.43;5.95;;;10.20;58.60;;;;;;5113262;28;20028;-70
2022/04/21 05:18:48;;;;;;;9.90;6.22;;;10.20;58.50;;;;;;5113054;28;20040;-70
2022/04/21 05:21:15;;;;;;;9.63;6.13;;;10.30;59.10;;;;;;5113415;28;20021;-70
2022/04/21 05:23:42;;;;;;;9.32;6.05;;;10.40;59.20;;;;;;5113228;28;20023;-69
2022/04/21 05:26:08;;;;;;;12.00;6.28;;;10.30;59.40;;;;;;5113328;28;20020;-70
2022/04/21 05:28:34;;;;;;;11.93;6.40;;;10.20;59.60;;;;;;5113101;28;20050;-70
2022/04/21 05:31:01;;;;;;;11.02;6.35;;;10.20;60.10;;;;;;5113201;28;20063;-70
2022/04/21 05:33:29;;;;;;;10.43;6.57;;;10.40;59.90;;;;;;5113172;28;20016;-70
2022/04/21 05:35:58;;;;;;;15.05;6.82;;;10.30;60.20;;;;;;5113066;28;20058;-70
2022/04/21 05:38:24;;;;;;;10.70;6.57;;;10.50;59.90;;;;;;5113005;28;20028;-69
2022/04/21 05:40:51;;;;;;;11.38;6.40;;;10.60;59.60;;;;;;5113085;28;20024;-71
2022/04/21 05:43:18;;;;;;;11.43;6.78;;;10.60;59.40;;;;;;5113065;28;20095;-70
2022/04/21 05:45:45;;;;;;;10.82;6.93;;;10.60;59.10;;;;;;5113059;28;20024;-70
2022/04/21 05:48:12;;;;;;;13.35;6.72;;;10.80;59.40;;;;;;5113109;28;20028;-70
2022/04/21 05:50:39;;;;;;;11.45;7.10;;;10.80;59.60;;;;;;5112945;28;20094;-70
2022/04/21 05:53:05;;;;;;;12.23;6.60;;;10.90;59.20;;;;;;5112946;28;20410;-69
2022/04/21 05:55:31;;;;;;;12.40;6.60;;;10.90;59.40;;;;;;5112997;28;20054;-69
2022/04/21 05:57:57;;;;;;;13.93;6.25;;;10.90;59.50;;;;;;5112820;28;20111;-70
2022/04/21 06:00:22;;;;;;;10.73;6.43;;;11.00;59.90;;;;;;5112888;28;20028;-70
2022/04/21 06:02:48;;;;;;;11.23;6.20;;;11.00;60.60;;;;;;5112818;28;20048;-69
2022/04/21 06:05:14;;;;;;;10.40;5.80;;;11.20;59.40;;;;;;5112835;28;20050;-69
2022/04/21 06:07:39;;;;;;;9.98;6.25;;;11.20;59.20;;;;;;5112787;28;20047;-69
2022/04/21 06:10:06;;;;;;;10.07;6.28;;;11.30;59.10;;;;;;5112769;28;20055;-69
2022/04/21 06:12:33;;;;;;;10.25;5.85;;;11.40;59.20;;;;;;5112755;28;20017;-69
2022/04/21 06:14:58;;;;;;;11.20;6.28;;;11.40;59.00;;;;;;5112763;28;20024;-70
2022/04/21 06:17:25;;;;;;;11.52;6.70;;;11.50;58.90;;;;;;5114170;28;20045;-70
2022/04/21 06:19:50;;;;;;;10.27;6.40;;;11.60;59.00;;;;;;5116254;28;20043;-70
2022/04/21 06:22:16;;;;;;;9.05;5.95;;;11.60;59.40;;;;;;5098421;28;20061;-71
2022/04/21 06:24:42;;;;;;;9.95;5.88;;;11.60;59.10;;;;;;5116369;28;20088;-70
2022/04/21 06:27:07;;;;;;;9.32;6.20;;;11.60;59.20;;;;;;5116240;28;20016;-71
2022/04/21 06:29:34;;;;;;;10.30;5.68;;;11.70;59.00;;;;;;5116130;28;20020;-71
2022/04/21 06:31:59;;;;;;;8.93;5.30;;;11.70;59.20;;;;;;5116193;28;20038;-71
2022/04/21 06:34:25;;;;;;;9.13;5.75;;;11.80;58.70;;;;;;5116078;28;20039;-69
2022/04/21 06:36:50;;;;;;;8.80;5.30;;;11.80;58.80;;;;;;5116040;28;20036;-72
2022/04/21 06:39:16;;;;;;;9.05;5.30;;;11.90;58.90;;;;;;5115998;28;20089;-70
2022/04/21 06:41:42;;;;;;;8.93;5.15;;;11.90;59.10;;;;;;5115992;28;20046;-69
2022/04/21 06:49:36;;;;;;;7.57;4.97;;;12.00;58.80;;;;;;5115990;28;20043;-69
2022/04/21 06:52:02;;;;;;;8.40;5.20;;;12.00;58.30;;;;;;5115890;28;20040;-69
2022/04/21 06:54:28;;;;;;;9.45;5.53;;;12.10;58.30;;;;;;5115903;28;20110;-70
2022/04/21 06:56:53;;;;;;;10.73;5.72;;;12.10;58.40;;;;;;5115664;28;20031;-69
2022/04/21 06:59:19;;;;;;;12.23;5.13;;;12.10;58.90;;;;;;5097702;28;20032;-69
2022/04/21 07:01:48;;;;;;;10.90;5.55;;;12.20;59.10;;;;;;5115553;28;20031;-69
2022/04/21 07:04:14;;;;;;;7.80;4.95;;;12.20;58.80;;;;;;5115539;28;20447;-69
2022/04/21 07:06:40;;;;;;;7.97;5.43;;;12.30;58.80;;;;;;5115671;28;20020;-69
2022/04/21 07:09:06;;;;;;;7.47;5.53;;;12.40;58.70;;;;;;5115475;28;20097;-70
2022/04/21 07:11:32;;;;;;;8.88;5.75;;;12.50;58.80;;;;;;5115440;28;20062;-69
2022/04/21 07:13:57;;;;;;;8.27;5.43;;;12.50;58.70;;;;;;5115358;28;20028;-69
2022/04/21 07:16:23;;;;;;;7.20;5.38;;;12.60;59.40;;;;;;5097489;28;20036;-69
2022/04/21 07:18:49;;;;;;;9.68;5.50;;;12.60;59.00;;;;;;5115064;28;20080;-69
2022/04/21 07:21:15;;;;;;;10.55;5.80;;;12.70;59.10;;;;;;5115244;28;20024;-69
2022/04/21 07:23:41;;;;;;;9.38;5.57;;;12.70;58.60;;;;;;5115178;28;20042;-69
2022/04/21 07:26:07;;;;;;;8.52;5.55;;;12.80;58.80;;;;;;5097431;28;20103;-68
2022/04/21 07:28:33;;;;;;;11.75;6.05;;;12.90;58.90;;;;;;5113885;28;20036;-69
2022/04/21 07:30:59;;;;;;;8.02;5.38;;;12.90;59.00;;;;;;5115048;28;20028;-69
2022/04/21 07:33:24;;;;;;;7.43;5.57;;;13.00;59.10;;;;;;5114919;28;20490;-69
2022/04/21 07:35:50;;;;;;;8.73;6.03;;;13.10;58.90;;;;;;5114909;28;20044;-70
2022/04/21 07:38:16;;;;;;;10.85;5.70;;;13.20;59.30;;;;;;5114925;28;20044;-70
2022/04/21 07:40:41;;;;;;;8.02;5.40;;;13.30;58.40;;;;;;5114806;28;20030;-70
2022/04/21 07:43:10;;;;;;;8.68;5.38;;;13.30;58.00;;;;;;5114790;28;20024;-69
2022/04/21 07:45:41;;;;;;;7.13;5.40;;;13.40;58.00;;;;;;5114753;28;20513;-70
2022/04/21 07:48:06;;;;;;;10.00;5.05;;;13.40;57.90;;;;;;5114765;28;20024;-70
2022/04/21 07:50:32;;;;;;;7.82;5.43;;;13.50;57.40;;;;;;5114703;28;20055;-69
2022/04/21 07:53:13;;;;;;;9.23;5.03;;;13.50;58.20;;;;;;5114634;28;20020;-69
2022/04/21 07:55:41;;;;;;;7.85;5.32;;;13.60;58.00;;;;;;5114694;28;20099;-70
2022/04/21 07:58:07;;;;;;;12.85;5.45;;;13.80;57.00;;;;;;5114463;28;20032;-69
2022/04/21 08:00:36;;;;;;;8.27;4.88;;;13.80;56.90;;;;;;5114470;28;20050;-69
2022/04/21 08:03:03;;;;;;;9.10;5.40;;;14.00;57.30;;;;;;5114392;28;20019;-69
2022/04/21 08:05:28;;;;;;;9.27;4.82;;;14.10;57.00;;;;;;5114362;28;20020;-70
2022/04/21 08:07:54;;;;;;;8.63;5.50;;;14.20;56.40;;;;;;5114279;28;20095;-69
2022/04/21 08:10:20;;;;;;;8.95;4.90;;;14.20;56.50;;;;;;5114299;28;20038;-70
2022/04/21 08:12:48;;;;;;;8.68;5.43;;;14.30;56.60;;;;;;5114245;28;20027;-69
2022/04/21 08:15:23;;;;;;;8.93;5.53;;;14.40;56.20;;;;;;5114200;28;20080;-70
2022/04/21 08:17:50;;;;;;;9.20;5.72;;;14.50;56.20;;;;;;5113915;28;20031;-69
2022/04/21 08:20:16;;;;;;;11.90;5.85;;;14.50;56.40;;;;;;5096220;28;20055;-70
2022/04/21 08:22:43;;;;;;;7.07;4.63;;;14.60;56.00;;;;;;5096033;28;20024;-70
2022/04/21 08:33:22;;;;;;;8.80;4.20;;;14.90;48.90;;;;;;5114076;28;20035;-69
2022/04/21 08:35:50;;;;;;;7.25;4.65;;;14.90;50.90;;;;;;5113852;28;20115;-70
2022/04/21 08:38:16;;;;;;;5.28;3.92;;;14.90;50.20;;;;;;5113749;28;20025;-70
2022/04/21 08:40:56;;;;;;;6.95;4.25;;;14.90;49.40;;;;;;5113465;28;20020;-69
2022/04/21 08:43:24;;;;;;;9.05;4.30;;;15.00;50.60;;;;;;5113750;28;20024;-70
2022/04/21 08:45:50;;;;;;;6.43;3.58;;;14.90;48.60;;;;;;5113361;28;20020;-70
2022/04/21 08:48:18;;;;;;;4.40;2.88;;;15.00;47.20;;;;;;5113642;28;20050;-70
2022/04/21 08:50:45;;;;;;;5.18;3.30;;;15.10;46.90;;;;;;5113493;28;20046;-69
2022/04/21 08:53:13;;;;;;;4.03;2.58;;;15.10;47.50;;;;;;5113644;28;20028;-70
2022/04/21 08:55:39;;;;;;;4.18;2.60;;;15.30;44.70;;;;;;5113551;28;20022;-70
2022/04/21 08:58:05;;;;;;;4.13;2.67;;;15.30;45.30;;;;;;5113549;28;20088;-70
2022/04/21 09:00:31;;;;;;;5.43;2.67;;;15.40;45.40;;;;;;5113593;28;20024;-69
2022/04/21 09:03:03;;;;;;;3.22;2.55;;;15.50;44.00;;;;;;5113440;28;20081;-69
2022/04/21 09:05:29;;;;;;;4.23;2.67;;;15.60;44.30;;;;;;5113211;28;20028;-69
2022/04/21 09:07:59;;;;;;;4.85;3.00;;;15.80;45.40;;;;;;5113377;28;20051;-70
2022/04/21 09:10:28;;;;;;;4.18;2.67;;;15.90;44.20;;;;;;5113401;28;20025;-70
2022/04/21 09:12:59;;;;;;;3.83;2.40;;;16.00;43.80;;;;;;5113351;28;20020;-70
2022/04/21 09:15:27;;;;;;;4.00;2.63;;;16.10;43.00;;;;;;5113529;28;20028;-70
2022/04/21 09:17:57;;;;;;;3.97;2.47;;;16.20;43.20;;;;;;5095107;28;20062;-70
2022/04/21 09:20:26;;;;;;;3.78;2.15;;;16.20;42.40;;;;;;5113336;28;20059;-68
2022/04/21 09:22:57;;;;;;;4.85;2.30;;;16.30;43.00;;;;;;5113254;28;20034;-69
2022/04/21 09:25:25;;;;;;;3.58;2.58;;;16.40;41.30;;;;;;5113280;28;20046;-69
2022/04/21 09:27:51;;;;;;;4.65;2.45;;;16.50;42.00;;;;;;5113178;28;20024;-69
2022/04/21 09:30:17;;;;;;;3.97;2.40;;;16.50;41.50;;;;;;5113232;28;20020;-70
2022/04/21 09:32:58;;;;;;;2.92;2.13;;;16.60;41.10;;;;;;5113154;28;20505;-70
2022/04/21 09:35:29;;;;;;;3.88;2.00;;;16.60;39.20;;;;;;5113361;28;20020;-70
2022/04/21 09:37:55;;;;;;;4.05;2.20;;;16.70;39.70;;;;;;5113216;28;20083;-70
2022/04/21 09:40:26;;;;;;;3.30;2.20;;;16.70;38.50;;;;;;5113125;28;20017;-69
2022/04/21 09:43:02;;;;;;;4.28;2.00;;;16.60;39.10;;;;;;5113147;28;20020;-69
2022/04/21 09:48:29;;;;;;;3.63;2.15;;;16.80;39.40;;;;;;5113385;28;20043;-70
2022/04/21 09:51:07;;;;;;;4.00;2.17;;;16.90;38.20;;;;;;5113062;28;20016;-69
2022/04/21 09:53:54;;;;;;;5.85;2.53;;;17.00;37.90;;;;;;5116526;28;20016;-70
2022/04/21 09:56:39;;;;;;;4.53;2.35;;;17.10;39.50;;;;;;5117070;28;20024;-69
2022/04/21 09:59:12;;;;;;;3.67;2.10;;;17.10;37.80;;;;;;5116784;28;20032;-70
2022/04/21 10:01:41;;;;;;;3.83;2.55;;;17.10;38.70;;;;;;5116848;28;20076;-69
2022/04/21 10:04:11;;;;;;;5.10;2.65;;;17.20;38.20;;;;;;5116749;28;20020;-69
2022/04/21 10:06:42;;;;;;;4.25;2.65;;;17.20;38.30;;;;;;5116731;28;20032;-69
2022/04/21 10:09:09;;;;;;;3.97;2.20;;;17.30;38.20;;;;;;5116697;28;20084;-68
2022/04/21 10:11:40;;;;;;;3.90;2.67;;;17.30;37.90;;;;;;5116655;28;20032;-69
2022/04/21 10:14:07;;;;;;;3.97;2.47;;;17.30;38.60;;;;;;5116715;28;20032;-69
2022/04/21 10:16:32;;;;;;;3.88;2.50;;;17.40;38.70;;;;;;5116427;28;20024;-69
2022/04/21 10:18:59;;;;;;;3.70;2.60;;;17.40;38.20;;;;;;5098297;28;20043;-68
2022/04/21 10:21:49;;;;;;;3.97;2.60;;;17.50;36.70;;;;;;5116433;28;20107;-69
2022/04/21 10:24:22;;;;;;;9.50;2.63;;;17.20;36.80;;;;;;5116513;28;20050;-69
2022/04/21 10:26:48;;;;;;;4.55;2.80;;;17.20;39.60;;;;;;5116338;28;20021;-69
2022/04/21 10:29:19;;;;;;;3.90;2.78;;;17.40;39.50;;;;;;5116192;28;20094;-70
2022/04/21 10:31:46;;;;;;;4.05;2.65;;;17.50;38.80;;;;;;5116263;28;20073;-69
2022/04/21 10:34:26;;;;;;;5.07;3.10;;;17.60;38.80;;;;;;5098308;28;20092;-69
2022/04/21 10:37:11;;;;;;;3.95;2.75;;;17.70;37.00;;;;;;5116145;28;20035;-69
2022/04/21 10:39:37;;;;;;;5.57;2.85;;;17.60;38.40;;;;;;5116036;28;20479;-70
2022/04/21 10:42:15;;;;;;;3.55;2.75;;;17.70;38.40;;;;;;5116027;28;20016;-70
2022/04/21 10:44:42;;;;;;;5.03;2.85;;;17.80;38.90;;;;;;5115952;28;20047;-69
2022/04/21 10:47:33;;;;;;;6.07;2.65;;;18.00;38.20;;;;;;5115960;28;20024;-69
2022/04/21 10:50:15;;;;;;;3.38;2.20;;;18.20;37.30;;;;;;5115875;28;20084;-69
2022/04/21 10:58:34;;;;;;;4.00;2.50;;;18.40;37.20;;;;;;5115809;28;20061;-69
2022/04/21 11:01:13;;;;;;;4.70;2.40;;;18.60;36.60;;;;;;5115625;28;20028;-69
2022/04/21 11:03:40;;;;;;;5.97;2.50;;;18.60;36.00;;;;;;5115510;28;20041;-69
2022/04/21 11:06:13;;;;;;;6.80;2.60;;;18.70;36.70;;;;;;5115575;28;20050;-69
2022/04/21 11:08:40;;;;;;;4.35;2.40;;;18.80;36.60;;;;;;5115572;28;20063;-70
2022/04/21 11:11:06;;;;;;;3.78;2.40;;;18.90;35.50;;;;;;5115498;28;20040;-70
2022/04/21 11:14:03;;;;;;;3.40;2.20;;;18.90;35.80;;;;;;5115431;28;20024;-69
2022/04/21 11:16:41;;;;;;;3.67;2.40;;;18.90;34.60;;;;;;5115406;28;20049;-69
2022/04/21 11:19:29;;;;;;;4.53;2.22;;;18.90;35.20;;;;;;5115070;28;20040;-68
2022/04/21 11:21:56;;;;;;;5.57;2.60;;;18.90;34.60;;;;;;5115264;28;20034;-69
2022/04/21 11:24:22;;;;;;;3.92;2.88;;;18.90;34.80;;;;;;5115208;28;20028;-69
2022/04/21 11:26:58;;;;;;;4.13;2.70;;;19.00;35.90;;;;;;5115147;28;20031;-69
2022/04/21 11:29:24;;;;;;;5.25;2.47;;;19.10;34.60;;;;;;5114981;28;20028;-69
2022/04/21 11:32:01;;;;;;;3.95;2.13;;;19.20;34.30;;;;;;5114989;28;20049;-69
2022/04/21 11:34:26;;;;;;;2.95;2.33;;;19.20;34.20;;;;;;5115040;28;20035;-69
2022/04/21 11:36:54;;;;;;;14.73;3.05;;;19.20;34.40;;;;;;5114970;28;20479;-69
2022/04/21 11:39:20;;;;;;;5.25;2.58;;;19.00;34.10;;;;;;5114965;28;20111;-69
2022/04/21 11:41:52;;;;;;;5.13;2.20;;;19.10;34.70;;;;;;5096896;28;20024;-70
2022/04/21 11:44:28;;;;;;;3.83;2.50;;;19.10;35.70;;;;;;5114904;28;20051;-70
2022/04/21 11:46:54;;;;;;;3.70;2.35;;;19.20;34.10;;;;;;5114866;28;20035;-70
2022/04/21 11:49:20;;;;;;;3.03;2.08;;;19.40;34.00;;;;;;5114706;28;20028;-69
2022/04/21 11:51:52;;;;;;;4.15;2.50;;;19.50;35.00;;;;;;5114658;28;20031;-69
2022/04/21 11:54:18;;;;;;;4.22;2.17;;;19.50;34.30;;;;;;5114672;28;20028;-69
2022/04/21 11:56:50;;;;;;;6.97;2.45;;;19.50;33.90;;;;;;5114556;28;20058;-69
2022/04/21 11:59:16;;;;;;;4.35;2.13;;;19.50;33.50;;;;;;5114507;28;20063;-69
2022/04/21 12:07:17;;;;;;;6.18;3.00;;;19.10;34.00;;;;;;5114548;28;20108;-69
2022/04/21 12:09:44;;;;;;;;;;;19.00;34.90;;;;;;5114758;28;20038;-69
2022/04/21 12:12:10;;;;;;;3.53;2.70;;;18.90;35.30;;;;;;5114302;28;19904;-69
2022/04/21 12:14:39;;;;;;;5.63;2.72;;;18.80;35.60;;;;;;5113667;28;20052;-69
2022/04/21 12:17:06;;;;;;;5.40;2.90;;;18.80;36.30;;;;;;5096210;28;20057;-69
2022/04/21 12:19:38;;;;;;;3.33;2.47;;;19.00;36.00;;;;;;5113866;28;20132;-69
2022/04/21 12:22:07;;;;;;;3.47;2.60;;;19.00;35.30;;;;;;5114065;28;20016;-70
2022/04/21 12:24:35;;;;;;;7.25;2.40;;;19.00;35.70;;;;;;5114040;28;20024;-70
2022/04/21 12:27:04;;;;;;;5.43;2.70;;;19.10;36.80;;;;;;5114011;28;20031;-69
2022/04/21 12:29:31;;;;;;;3.80;2.72;;;19.10;35.20;;;;;;5113937;28;20069;-69
2022/04/21 12:32:02;;;;;;;5.00;2.72;;;19.10;35.40;;;;;;5113905;28;20047;-69
2022/04/21 12:34:33;;;;;;;3.90;2.40;;;19.10;36.50;;;;;;5114076;28;20031;-70
2022/04/21 12:37:00;;;;;;;4.13;2.67;;;19.20;35.90;;;;;;5113907;28;20020;-69
2022/04/21 12:39:28;;;;;;;7.03;2.97;;;19.20;35.90;;;;;;5113753;28;20054;-69
2022/04/21 12:41:55;;;;;;;3.08;2.40;;;19.30;35.50;;;;;;5113824;28;20024;-70
2022/04/21 12:44:24;;;;;;;7.35;2.83;;;19.40;35.30;;;;;;5113700;28;20026;-69
2022/04/21 12:47:02;;;;;;;3.92;2.95;;;19.50;35.80;;;;;;5113668;28;20024;-68
2022/04/21 12:49:54;;;;;;;4.63;3.13;;;19.70;35.60;;;;;;5113659;28;20028;-68
2022/04/21 12:52:35;;;;;;;6.80;2.78;;;19.80;34.50;;;;;;5113791;28;20024;-69
2022/04/21 12:55:30;;;;;;;6.20;3.00;;;19.90;33.50;;;;;;5113524;28;20032;-68
2022/04/21 12:58:05;;;;;;;5.13;3.50;;;19.90;34.30;;;;;;5108499;28;20054;-68
2022/04/21 13:00:33;;;;;;;5.43;2.65;;;19.90;33.60;;;;;;5113591;28;20031;-70
2022/04/21 13:03:00;;;;;;;3.60;2.88;;;19.90;34.40;;;;;;5113441;28;20048;-70
2022/04/21 13:05:27;;;;;;;5.20;2.78;;;19.90;35.90;;;;;;5113439;28;20054;-69
2022/04/21 13:07:53;;;;;;;14.07;3.58;;;20.00;35.60;;;;;;5113421;28;20020;-69
2022/04/21 13:10:21;;;;;;;5.47;3.17;;;20.10;35.60;;;;;;5113419;28;20027;-71
2022/04/21 13:12:50;;;;;;;4.25;3.25;;;20.20;34.50;;;;;;5113340;28;20028;-70
2022/04/21 13:15:16;;;;;;;4.93;3.38;;;20.20;35.80;;;;;;5113393;28;20024;-70
2022/04/21 13:17:42;;;;;;;6.20;3.65;;;20.20;34.80;;;;;;5113167;28;20110;-70
2022/04/21 13:20:08;;;;;;;4.93;3.53;;;20.20;35.90;;;;;;5113237;28;20052;-70
2022/04/21 13:22:34;;;;;;;6.20;3.72;;;20.30;36.60;;;;;;5113280;28;20043;-70
2022/04/21 13:24:59;;;;;;;9.82;3.47;;;20.30;36.10;;;;;;5113230;28;20024;-70
2022/04/21 13:27:26;;;;;;;6.57;3.65;;;20.30;37.00;;;;;;5114939;28;20024;-69
2022/04/21 13:29:53;;;;;;;8.00;4.00;;;20.40;36.60;;;;;;5117367;28;20028;-70
2022/04/21 13:35:05;;;;;;;8.68;3.92;;;20.50;36.30;;;;;;5117370;28;20042;-70
2022/04/21 13:37:31;;;;;;;6.03;4.10;;;20.40;37.00;;;;;;5117303;28;20043;-69
2022/04/21 13:39:56;;;;;;;5.63;4.00;;;20.20;36.30;;;;;;5117133;28;20072;-69
2022/04/21 13:42:22;;;;;;;4.97;3.55;;;20.20;36.50;;;;;;5117269;28;20440;-68